Time;durP1;ratioP1;P1;durP2;ratioP2;P2;SDS_P1;SDS_P2;PMS_P1;PMS_P2;Temp;Humidity;BMP_temperature;BMP_pressure;BME280_temperature;BME280_humidity;BME280_pressure;Samples;Min_cycle;Max_cycle;Signal;HPM_P1;HPM_P2
2022/11/02 00:05:32;;;;;;;0.20;0.00;;;16.90;99.90;;;;;;25662995;23;20371;-71
2022/11/02 00:15:37;;;;;;;0.20;0.10;;;16.70;99.90;;;;;;25633487;23;20370;-71
2022/11/02 00:25:45;;;;;;;0.20;0.07;;;16.60;99.90;;;;;;25634931;23;20403;-71
2022/11/02 00:35:50;;;;;;;0.20;0.00;;;16.60;99.90;;;;;;25660765;23;20363;-72
2022/11/02 00:45:53;;;;;;;0.20;0.05;;;16.70;99.90;;;;;;25632389;23;20363;-71
2022/11/02 00:55:58;;;;;;;0.20;0.10;;;16.60;99.90;;;;;;25660055;23;20376;-71
2022/11/02 01:06:08;;;;;;;0.20;0.00;;;16.60;99.90;;;;;;25659546;23;20375;-70
2022/11/02 01:16:15;;;;;;;0.20;0.00;;;16.40;99.90;;;;;;25635037;23;20383;-69
2022/11/02 01:26:19;;;;;;;0.20;0.10;;;16.40;99.90;;;;;;25658202;23;20420;-70
2022/11/02 01:36:24;;;;;;;0.20;0.10;;;16.40;99.90;;;;;;25634250;23;20374;-69
2022/11/02 01:46:35;;;;;;;0.20;0.00;;;16.30;99.90;;;;;;25630992;23;20388;-69
2022/11/02 01:56:41;;;;;;;0.20;0.00;;;16.40;99.90;;;;;;25655523;23;20363;-70
2022/11/02 02:06:45;;;;;;;0.20;0.10;;;16.20;99.90;;;;;;25632891;23;20371;-70
2022/11/02 02:17:09;;;;;;;0.20;0.00;;;16.30;99.90;;;;;;25656261;23;20387;-71
2022/11/02 02:27:18;;;;;;;0.20;0.00;;;16.50;99.90;;;;;;25657121;23;20371;-71
2022/11/02 02:37:28;;;;;;;0.20;0.08;;;16.80;99.90;;;;;;25628749;23;20387;-71
2022/11/02 02:47:34;;;;;;;0.20;0.00;;;16.80;99.90;;;;;;25657314;23;20384;-70
2022/11/02 02:57:40;;;;;;;0.20;0.08;;;16.90;99.90;;;;;;25630404;23;20394;-70
2022/11/02 03:07:44;;;;;;;0.20;0.00;;;17.10;99.90;;;;;;25628908;23;20379;-70
2022/11/02 03:18:01;;;;;;;0.20;0.10;;;17.10;99.90;;;;;;25655925;23;20378;-70
2022/11/02 03:28:14;;;;;;;0.20;0.03;;;17.00;99.90;;;;;;25663399;23;20371;-71
2022/11/02 03:38:22;;;;;;;0.20;0.00;;;17.00;99.90;;;;;;25662262;23;20376;-71
2022/11/02 03:48:30;;;;;;;0.20;0.00;;;16.90;99.90;;;;;;25664057;23;20461;-70
2022/11/02 03:58:36;;;;;;;0.20;0.00;;;16.90;99.90;;;;;;25663021;23;20364;-72
2022/11/02 04:08:42;;;;;;;0.20;0.00;;;16.90;99.90;;;;;;25661825;23;20388;-72
2022/11/02 04:29:09;;;;;;;0.20;0.07;;;17.00;99.90;;;;;;25637117;23;20392;-72
2022/11/02 04:39:14;;;;;;;0.20;0.00;;;16.80;99.90;;;;;;25633362;23;20383;-71
2022/11/02 04:49:18;;;;;;;0.20;0.00;;;16.70;99.90;;;;;;25661564;23;20575;-72
2022/11/02 04:59:23;;;;;;;0.20;0.00;;;16.50;99.90;;;;;;25632679;23;20367;-72
2022/11/02 05:09:26;;;;;;;0.20;0.10;;;16.60;99.90;;;;;;25635001;23;20560;-72
2022/11/02 05:19:31;;;;;;;0.20;0.10;;;16.60;99.90;;;;;;25631602;23;20389;-72
2022/11/02 05:29:35;;;;;;;0.20;0.10;;;16.60;99.90;;;;;;25632027;23;20399;-71
2022/11/02 05:39:40;;;;;;;0.20;0.10;;;16.50;99.90;;;;;;25633552;23;20387;-71
2022/11/02 05:49:48;;;;;;;0.20;0.00;;;16.50;99.90;;;;;;25629455;23;20436;-71
2022/11/02 05:59:53;;;;;;;0.20;0.10;;;16.50;99.90;;;;;;25658001;23;20364;-72
2022/11/02 06:09:57;;;;;;;0.20;0.07;;;16.70;99.90;;;;;;25628292;23;20903;-72
2022/11/02 06:20:02;;;;;;;0.20;0.00;;;16.80;99.90;;;;;;25657417;23;20363;-71
2022/11/02 06:30:07;;;;;;;0.20;0.00;;;16.80;99.90;;;;;;25628710;23;20407;-71
2022/11/02 06:40:14;;;;;;;0.20;0.00;;;16.50;99.90;;;;;;25654478;23;20363;-72
2022/11/02 06:50:18;;;;;;;0.20;0.10;;;16.60;99.90;;;;;;25627909;23;20367;-72
2022/11/02 07:00:23;;;;;;;0.20;0.00;;;16.80;99.90;;;;;;25653885;23;20383;-72
2022/11/02 07:10:28;;;;;;;0.20;0.00;;;16.90;99.90;;;;;;25631799;23;20387;-73
2022/11/02 07:20:33;;;;;;;0.20;0.00;;;17.30;99.90;;;;;;25661590;23;20360;-73
2022/11/02 07:30:37;;;;;;;0.20;0.10;;;17.70;99.90;;;;;;25634549;23;20390;-73
2022/11/02 07:40:42;;;;;;;0.20;0.00;;;18.00;99.90;;;;;;25661122;23;20413;-73
2022/11/02 07:50:46;;;;;;;0.20;0.00;;;18.60;99.90;;;;;;25660939;23;20431;-74
2022/11/02 08:00:51;;;;;;;0.20;0.10;;;19.10;99.90;;;;;;25633633;23;20363;-73
2022/11/02 08:11:05;;;;;;;0.20;0.00;;;19.30;99.90;;;;;;25658757;23;20463;-73
2022/11/02 08:21:10;;;;;;;0.20;0.07;;;20.10;99.90;;;;;;25632179;23;20374;-70
2022/11/02 08:31:16;;;;;;;0.20;0.00;;;20.30;99.90;;;;;;25633581;23;20403;-72
2022/11/02 08:41:21;;;;;;;0.20;0.00;;;20.50;99.90;;;;;;25631142;23;20372;-70
2022/11/02 08:51:25;;;;;;;0.20;0.00;;;20.80;99.90;;;;;;25657304;23;20376;-72
2022/11/02 09:01:30;;;;;;;0.20;0.00;;;20.70;99.90;;;;;;25658978;23;20398;-72
2022/11/02 09:11:34;;;;;;;0.20;0.00;;;20.70;99.90;;;;;;25631083;23;20380;-72
2022/11/02 09:21:39;;;;;;;0.20;0.00;;;21.00;99.90;;;;;;25606135;23;20404;-72
2022/11/02 09:31:42;;;;;;;0.20;0.00;;;21.40;99.90;;;;;;25627865;23;20375;-71
2022/11/02 09:41:51;;;;;;;0.20;0.00;;;21.90;99.90;;;;;;25656197;23;20371;-68
2022/11/02 09:51:57;;;;;;;0.20;0.00;;;22.30;99.90;;;;;;25653158;23;20379;-69
2022/11/02 10:02:12;;;;;;;0.20;0.00;;;21.80;99.90;;;;;;25627402;23;20359;-70
2022/11/02 10:12:20;;;;;;;0.20;0.10;;;22.10;99.90;;;;;;25627361;23;20387;-70
2022/11/02 10:22:31;;;;;;;0.20;0.00;;;22.60;99.90;;;;;;25627886;23;20383;-69
2022/11/02 10:32:37;;;;;;;0.20;0.10;;;22.80;99.90;;;;;;25652612;23;20383;-69
2022/11/02 10:42:58;;;;;;;0.20;0.00;;;23.00;99.90;;;;;;25649766;23;20483;-70
2022/11/02 10:53:02;;;;;;;0.20;0.00;;;23.30;99.90;;;;;;25651800;23;20376;-69
2022/11/02 11:03:27;;;;;;;0.20;0.00;;;23.30;99.90;;;;;;25601623;23;20443;-69
2022/11/02 11:13:31;;;;;;;0.20;0.00;;;24.50;99.90;;;;;;25652967;23;20585;-69
2022/11/02 11:24:22;;;;;;;0.20;0.08;;;24.10;99.90;;;;;;25652537;23;21220;-69
2022/11/02 11:34:28;;;;;;;0.20;0.00;;;24.80;99.90;;;;;;25652770;23;20390;-71
2022/11/02 11:44:34;;;;;;;0.20;0.03;;;24.60;99.90;;;;;;25658420;23;20368;-69
2022/11/02 11:54:38;;;;;;;0.20;0.10;;;24.60;99.90;;;;;;25658206;23;20375;-65
2022/11/02 12:04:43;;;;;;;0.20;0.00;;;23.90;99.90;;;;;;25660323;23;20375;-68
2022/11/02 12:14:58;;;;;;;0.20;0.08;;;24.60;99.90;;;;;;25658604;23;20387;-68
2022/11/02 12:25:27;;;;;;;0.20;0.00;;;24.50;99.90;;;;;;25660503;23;20380;-68
2022/11/02 12:36:05;;;;;;;0.20;0.00;;;24.90;99.90;;;;;;25659457;23;20605;-69
2022/11/02 12:46:22;;;;;;;0.20;0.00;;;24.90;99.90;;;;;;25602227;23;20363;-68
2022/11/02 12:56:31;;;;;;;0.20;0.00;;;24.70;99.90;;;;;;25656716;23;20390;-69
2022/11/02 13:06:39;;;;;;;0.20;0.00;;;23.80;99.90;;;;;;25656224;23;20410;-69
2022/11/02 13:16:49;;;;;;;0.20;0.00;;;23.60;99.90;;;;;;25603979;23;20418;-68
2022/11/02 13:26:55;;;;;;;0.20;0.00;;;23.50;99.90;;;;;;25655484;23;20398;-70
2022/11/02 13:37:08;;;;;;;0.20;0.10;;;23.70;99.90;;;;;;25646609;23;20385;-70
2022/11/02 13:47:34;;;;;;;0.20;0.00;;;24.20;99.90;;;;;;25651242;23;20379;-69
2022/11/02 13:57:40;;;;;;;0.20;0.03;;;23.90;99.90;;;;;;25654268;23;20366;-68
2022/11/02 14:07:46;;;;;;;0.20;0.00;;;25.20;99.90;;;;;;25654850;23;20382;-70
2022/11/02 14:18:10;;;;;;;0.20;0.00;;;26.10;99.90;;;;;;25654994;23;20404;-68
2022/11/02 14:28:42;;;;;;;0.20;0.00;;;26.30;99.90;;;;;;25622121;23;20390;-70
2022/11/02 14:39:05;;;;;;;0.20;0.00;;;26.80;99.90;;;;;;25625250;23;20374;-71
2022/11/02 14:49:18;;;;;;;0.20;0.00;;;26.50;99.90;;;;;;25598487;23;20390;-69
2022/11/02 14:59:26;;;;;;;0.20;0.00;;;25.30;99.90;;;;;;25648213;23;20367;-69
2022/11/02 15:09:55;;;;;;;0.20;0.00;;;23.30;99.90;;;;;;25619965;23;20386;-69
2022/11/02 15:20:24;;;;;;;0.20;0.00;;;22.30;99.90;;;;;;25654642;23;20369;-69
2022/11/02 15:30:29;;;;;;;0.20;0.10;;;22.10;99.90;;;;;;25654722;23;20398;-69
2022/11/02 15:40:35;;;;;;;0.20;0.00;;;21.60;99.90;;;;;;25626609;23;20382;-70
2022/11/02 15:50:49;;;;;;;0.20;0.00;;;21.30;99.90;;;;;;25655191;23;20414;-67
2022/11/02 16:01:13;;;;;;;0.20;0.03;;;21.20;99.90;;;;;;25632392;23;20371;-68
2022/11/02 16:11:20;;;;;;;0.20;0.10;;;21.00;99.90;;;;;;25656580;23;20394;-70
2022/11/02 16:21:24;;;;;;;0.20;0.00;;;20.90;99.90;;;;;;25652641;23;20367;-69
2022/11/02 16:31:30;;;;;;;0.20;0.00;;;20.80;99.90;;;;;;25656964;23;20382;-70
2022/11/02 16:41:35;;;;;;;0.20;0.00;;;20.50;99.90;;;;;;25627653;23;20439;-72
2022/11/02 16:51:40;;;;;;;0.20;0.00;;;20.30;99.90;;;;;;25655065;23;20382;-70
2022/11/02 17:01:44;;;;;;;0.20;0.00;;;20.00;99.90;;;;;;25626431;23;20368;-71
2022/11/02 17:11:51;;;;;;;0.20;0.00;;;19.80;99.90;;;;;;25627335;23;20386;-70
2022/11/02 17:22:05;;;;;;;0.20;0.00;;;19.20;99.90;;;;;;25627047;23;20383;-71
2022/11/02 17:32:15;;;;;;;0.20;0.10;;;19.20;99.90;;;;;;25627403;23;20371;-72
2022/11/02 17:52:41;;;;;;;0.20;0.00;;;18.40;99.90;;;;;;25650010;23;20442;-71
2022/11/02 18:02:49;;;;;;;0.20;0.10;;;18.30;99.90;;;;;;25650785;23;20363;-70
2022/11/02 18:12:55;;;;;;;0.20;0.10;;;18.10;99.90;;;;;;25621995;23;20382;-70
2022/11/02 18:22:59;;;;;;;0.20;0.10;;;18.10;99.90;;;;;;25622565;23;20380;-71
2022/11/02 18:33:04;;;;;;;0.20;0.10;;;18.00;99.90;;;;;;25624266;23;20395;-73
2022/11/02 18:43:14;;;;;;;0.20;0.10;;;18.10;99.90;;;;;;25649722;23;20363;-72
2022/11/02 18:53:19;;;;;;;0.20;0.10;;;17.90;99.90;;;;;;25625685;23;20472;-70
2022/11/02 19:03:23;;;;;;;0.20;0.10;;;17.90;99.90;;;;;;25651695;23;20367;-72
2022/11/02 19:13:28;;;;;;;0.20;0.10;;;17.80;99.90;;;;;;25625262;23;20391;-70
2022/11/02 19:23:32;;;;;;;0.20;0.00;;;17.80;99.90;;;;;;25651278;23;20386;-70
2022/11/02 19:33:37;;;;;;;0.20;0.00;;;17.70;99.90;;;;;;25625149;23;20420;-72
2022/11/02 19:43:42;;;;;;;0.20;0.10;;;17.70;99.90;;;;;;25624196;23;20368;-71
2022/11/02 19:53:48;;;;;;;0.20;0.00;;;17.60;99.90;;;;;;25621435;23;20814;-71
2022/11/02 20:03:53;;;;;;;0.20;0.10;;;17.60;99.90;;;;;;25652794;23;20378;-70
2022/11/02 20:13:59;;;;;;;0.20;0.10;;;17.40;99.90;;;;;;25653840;23;20375;-72
2022/11/02 20:24:03;;;;;;;0.20;0.10;;;17.30;99.90;;;;;;25654387;23;20379;-72
2022/11/02 20:34:08;;;;;;;0.20;0.10;;;17.20;99.90;;;;;;25652853;23;20411;-70
2022/11/02 20:44:12;;;;;;;0.20;0.10;;;17.00;99.90;;;;;;25629560;23;20372;-69
2022/11/02 20:54:18;;;;;;;0.20;0.10;;;17.10;99.90;;;;;;25621689;23;20376;-70
2022/11/02 21:04:22;;;;;;;0.20;0.10;;;17.00;99.90;;;;;;25625859;23;20379;-70
2022/11/02 21:14:27;;;;;;;0.20;0.10;;;16.90;99.90;;;;;;25653269;23;20383;-72
2022/11/02 21:24:31;;;;;;;0.20;0.10;;;16.90;99.90;;;;;;25628761;23;20373;-70
2022/11/02 21:34:36;;;;;;;0.20;0.10;;;16.80;99.90;;;;;;25653647;23;20389;-70
2022/11/02 21:44:40;;;;;;;0.20;0.10;;;16.70;99.90;;;;;;25651853;23;20375;-71
2022/11/02 21:54:45;;;;;;;0.20;0.10;;;16.70;99.90;;;;;;25654583;23;20406;-72
2022/11/02 22:04:52;;;;;;;0.20;0.00;;;16.60;99.90;;;;;;25656362;23;20398;-71
2022/11/02 22:14:57;;;;;;;0.20;0.00;;;16.50;99.90;;;;;;25647770;23;20375;-70
2022/11/02 22:25:01;;;;;;;0.20;0.10;;;16.40;99.90;;;;;;25649121;23;20377;-70
2022/11/02 22:35:06;;;;;;;0.20;0.10;;;16.50;99.90;;;;;;25652659;23;20367;-70
2022/11/02 22:45:10;;;;;;;0.20;0.00;;;16.20;99.90;;;;;;25650425;23;20375;-70
2022/11/02 22:55:16;;;;;;;0.20;0.10;;;16.20;99.90;;;;;;25625094;23;20398;-70
2022/11/02 23:05:19;;;;;;;0.20;0.10;;;16.20;99.90;;;;;;25626723;23;20360;-71
2022/11/02 23:15:25;;;;;;;0.20;0.00;;;16.40;99.90;;;;;;25652502;23;20410;-70
2022/11/02 23:25:28;;;;;;;0.20;0.10;;;16.30;99.90;;;;;;25651048;23;20449;-71
2022/11/02 23:45:57;;;;;;;0.20;0.00;;;16.30;99.90;;;;;;25634272;23;20375;-71
